North San Ysidro, New Mexico
Current Conditions -  °F | °C
As of 10:53 AM on Friday 28 Nov 2014 (Local Time) from KLVS Reporting Station
Clear Clear  
Wind Chill: 66°   Ceiling: Unl
Heat Index: 66°   Visibility: 10mi
Dew Point:   Wind: 20mph
Humidity: 8%   Direction: 230°SW
Pressure: 30.16"   Gusts: NA
Location:  35.4225°N, 105.56°W
Report Text: KLVS 281753Z AUTO 23017KT 10SM CLR 19/M17 A3016 RMK AO2 SLP127 T01891172 10189 20022 58013
Loading
Personal Weather Stations






























Interactive Weather Map New forecast layout! Learn more

10-Day Weather Forecast

Advertisements
Track Severe Weather on mobile